createdAt,value
2023-01-18T14:34:38.894Z,2544
2023-01-18T14:35:39.133Z,2584
2023-01-18T14:36:38.391Z,2624
2023-01-18T14:37:38.640Z,2648
2023-01-18T14:38:39.262Z,2672
2023-01-18T14:39:38.595Z,2684
2023-01-18T14:40:40.049Z,2680
2023-01-18T14:41:40.225Z,2652
2023-01-18T14:42:39.256Z,2616
2023-01-18T14:43:39.350Z,2588
2023-01-18T14:44:57.691Z,2568
2023-01-18T14:45:38.821Z,2552
2023-01-18T14:46:39.807Z,2536
2023-01-18T14:47:38.717Z,2508
2023-01-18T14:48:39.229Z,2468
2023-01-18T14:49:39.619Z,2420
2023-01-18T14:50:38.827Z,2372
2023-01-18T14:51:40.655Z,2320
2023-01-18T14:52:38.946Z,2280
2023-01-18T14:53:38.678Z,2244
2023-01-18T14:54:38.808Z,2208
2023-01-18T14:55:38.457Z,2160
2023-01-18T14:56:39.059Z,2104
2023-01-18T14:57:39.222Z,2028
2023-01-18T14:58:40.113Z,1940
2023-01-18T14:59:39.261Z,1852
2023-01-18T15:00:38.818Z,1760
2023-01-18T15:01:40.194Z,1664
2023-01-18T15:02:41.296Z,1568
2023-01-18T15:03:38.792Z,1476
2023-01-18T15:04:38.749Z,1380
2023-01-18T15:05:39.670Z,1288
2023-01-18T15:06:40.565Z,1212
2023-01-18T15:07:39.384Z,1160
2023-01-18T15:08:39.582Z,1128
2023-01-18T15:09:38.732Z,1108
2023-01-18T15:10:39.951Z,1072
2023-01-18T15:11:39.119Z,1024
2023-01-18T15:12:40.110Z,972
2023-01-18T15:13:38.576Z,924
2023-01-18T15:14:38.238Z,876
2023-01-18T15:15:39.272Z,832
2023-01-18T15:16:38.859Z,788
2023-01-18T15:17:38.479Z,744
2023-01-18T15:18:39.275Z,700
2023-01-18T15:19:39.110Z,656
2023-01-18T15:20:39.013Z,616
2023-01-18T15:21:39.073Z,576
2023-01-18T15:22:39.079Z,540
2023-01-18T15:23:40.411Z,500
2023-01-18T15:24:38.767Z,464
2023-01-18T15:25:39.093Z,428
2023-01-18T15:26:39.758Z,396
2023-01-18T15:27:39.411Z,364
2023-01-18T15:28:39.663Z,332
2023-01-18T15:29:38.881Z,308
2023-01-18T15:30:38.846Z,284
2023-01-18T15:31:39.751Z,264
2023-01-18T15:32:38.292Z,248
2023-01-18T15:33:38.554Z,232
2023-01-18T15:34:38.673Z,212
2023-01-18T15:35:39.459Z,196
2023-01-18T15:36:38.847Z,180
2023-01-18T15:37:39.472Z,164
2023-01-18T15:38:39.198Z,152
2023-01-18T15:39:39.708Z,140
2023-01-18T15:40:39.217Z,124
2023-01-18T15:41:38.281Z,112
